sensor_id;sensor_type;location;lat;lon;timestamp;P1;durP1;ratioP1;P2;durP2;ratioP2
3259;SDS011;68938;48.150;14.004;2023-05-20T00:02:11;10.30;;;9.40;;
3259;SDS011;68938;48.150;14.004;2023-05-20T00:04:38;10.30;;;9.30;;
3259;SDS011;68938;48.150;14.004;2023-05-20T00:07:05;9.97;;;9.07;;
3259;SDS011;68938;48.150;14.004;2023-05-20T00:09:32;9.67;;;8.80;;
3259;SDS011;68938;48.150;14.004;2023-05-20T00:11:59;10.50;;;9.50;;
3259;SDS011;68938;48.150;14.004;2023-05-20T00:14:26;10.00;;;9.03;;
3259;SDS011;68938;48.150;14.004;2023-05-20T00:16:53;11.07;;;10.00;;
3259;SDS011;68938;48.150;14.004;2023-05-20T00:19:20;10.70;;;9.80;;
3259;SDS011;68938;48.150;14.004;2023-05-20T00:21:47;11.13;;;10.20;;
3259;SDS011;68938;48.150;14.004;2023-05-20T00:24:14;11.23;;;9.93;;
3259;SDS011;68938;48.150;14.004;2023-05-20T00:26:41;10.13;;;9.33;;
3259;SDS011;68938;48.150;14.004;2023-05-20T00:29:08;9.63;;;8.83;;
3259;SDS011;68938;48.150;14.004;2023-05-20T00:31:35;10.53;;;9.50;;
3259;SDS011;68938;48.150;14.004;2023-05-20T00:34:02;8.77;;;8.03;;
3259;SDS011;68938;48.150;14.004;2023-05-20T00:36:29;10.80;;;9.93;;
3259;SDS011;68938;48.150;14.004;2023-05-20T00:38:56;9.60;;;8.60;;
3259;SDS011;68938;48.150;14.004;2023-05-20T00:41:23;10.47;;;9.57;;
3259;SDS011;68938;48.150;14.004;2023-05-20T00:43:53;11.17;;;10.00;;
3259;SDS011;68938;48.150;14.004;2023-05-20T00:46:24;11.93;;;10.83;;
3259;SDS011;68938;48.150;14.004;2023-05-20T00:48:52;11.27;;;10.27;;
3259;SDS011;68938;48.150;14.004;2023-05-20T00:51:19;10.37;;;9.47;;
3259;SDS011;68938;48.150;14.004;2023-05-20T00:53:47;13.13;;;10.17;;
3259;SDS011;68938;48.150;14.004;2023-05-20T00:56:15;10.73;;;9.83;;
3259;SDS011;68938;48.150;14.004;2023-05-20T00:58:43;12.50;;;11.40;;
3259;SDS011;68938;48.150;14.004;2023-05-20T01:01:10;11.60;;;10.60;;
3259;SDS011;68938;48.150;14.004;2023-05-20T01:03:37;11.90;;;9.30;;
3259;SDS011;68938;48.150;14.004;2023-05-20T01:06:06;11.47;;;10.47;;
3259;SDS011;68938;48.150;14.004;2023-05-20T01:08:33;11.30;;;10.17;;
3259;SDS011;68938;48.150;14.004;2023-05-20T01:11:10;13.93;;;12.10;;
3259;SDS011;68938;48.150;14.004;2023-05-20T01:13:54;14.13;;;12.90;;
3259;SDS011;68938;48.150;14.004;2023-05-20T01:16:27;12.23;;;11.03;;
3259;SDS011;68938;48.150;14.004;2023-05-20T01:18:56;12.87;;;11.07;;
3259;SDS011;68938;48.150;14.004;2023-05-20T01:21:25;14.63;;;13.17;;
3259;SDS011;68938;48.150;14.004;2023-05-20T01:23:53;13.43;;;12.17;;
3259;SDS011;68938;48.150;14.004;2023-05-20T01:26:19;13.37;;;12.17;;
3259;SDS011;68938;48.150;14.004;2023-05-20T01:28:46;12.73;;;11.50;;
3259;SDS011;68938;48.150;14.004;2023-05-20T01:31:14;14.40;;;13.00;;
3259;SDS011;68938;48.150;14.004;2023-05-20T01:33:51;14.60;;;13.20;;
3259;SDS011;68938;48.150;14.004;2023-05-20T01:36:22;14.23;;;12.93;;
3259;SDS011;68938;48.150;14.004;2023-05-20T01:38:50;15.93;;;12.27;;
3259;SDS011;68938;48.150;14.004;2023-05-20T01:41:20;12.90;;;11.70;;
3259;SDS011;68938;48.150;14.004;2023-05-20T01:43:49;13.10;;;11.97;;
3259;SDS011;68938;48.150;14.004;2023-05-20T01:46:16;14.13;;;12.67;;
3259;SDS011;68938;48.150;14.004;2023-05-20T01:48:43;12.77;;;11.57;;
3259;SDS011;68938;48.150;14.004;2023-05-20T01:51:10;12.60;;;11.50;;
3259;SDS011;68938;48.150;14.004;2023-05-20T01:53:37;13.67;;;12.30;;
3259;SDS011;68938;48.150;14.004;2023-05-20T01:56:04;16.23;;;14.77;;
3259;SDS011;68938;48.150;14.004;2023-05-20T01:58:31;14.57;;;13.20;;
3259;SDS011;68938;48.150;14.004;2023-05-20T02:00:58;15.60;;;13.10;;
3259;SDS011;68938;48.150;14.004;2023-05-20T02:03:25;14.83;;;13.43;;
3259;SDS011;68938;48.150;14.004;2023-05-20T02:05:54;12.83;;;11.63;;
3259;SDS011;68938;48.150;14.004;2023-05-20T02:08:22;14.43;;;13.00;;
3259;SDS011;68938;48.150;14.004;2023-05-20T02:10:49;14.47;;;13.07;;
3259;SDS011;68938;48.150;14.004;2023-05-20T02:13:16;15.40;;;13.87;;
3259;SDS011;68938;48.150;14.004;2023-05-20T02:15:43;15.53;;;13.93;;
3259;SDS011;68938;48.150;14.004;2023-05-20T02:18:09;15.20;;;13.70;;
3259;SDS011;68938;48.150;14.004;2023-05-20T02:20:37;15.13;;;13.50;;
3259;SDS011;68938;48.150;14.004;2023-05-20T02:23:04;15.83;;;14.13;;
3259;SDS011;68938;48.150;14.004;2023-05-20T02:25:31;16.40;;;14.90;;
3259;SDS011;68938;48.150;14.004;2023-05-20T02:27:58;18.30;;;15.03;;
3259;SDS011;68938;48.150;14.004;2023-05-20T02:30:25;17.70;;;16.10;;
3259;SDS011;68938;48.150;14.004;2023-05-20T02:32:52;19.13;;;15.87;;
3259;SDS011;68938;48.150;14.004;2023-05-20T02:35:19;16.97;;;15.33;;
3259;SDS011;68938;48.150;14.004;2023-05-20T02:37:46;17.30;;;15.57;;
3259;SDS011;68938;48.150;14.004;2023-05-20T02:40:13;19.17;;;17.13;;
3259;SDS011;68938;48.150;14.004;2023-05-20T02:42:40;17.77;;;15.87;;
3259;SDS011;68938;48.150;14.004;2023-05-20T02:45:07;19.77;;;16.90;;
3259;SDS011;68938;48.150;14.004;2023-05-20T02:47:35;18.83;;;16.80;;
3259;SDS011;68938;48.150;14.004;2023-05-20T02:50:02;19.40;;;16.63;;
3259;SDS011;68938;48.150;14.004;2023-05-20T02:52:29;20.03;;;17.30;;
3259;SDS011;68938;48.150;14.004;2023-05-20T02:54:56;18.63;;;16.77;;
3259;SDS011;68938;48.150;14.004;2023-05-20T02:57:24;18.80;;;16.80;;
3259;SDS011;68938;48.150;14.004;2023-05-20T02:59:51;21.40;;;19.20;;
3259;SDS011;68938;48.150;14.004;2023-05-20T03:02:18;19.90;;;17.80;;
3259;SDS011;68938;48.150;14.004;2023-05-20T03:04:45;20.90;;;18.43;;
3259;SDS011;68938;48.150;14.004;2023-05-20T03:07:12;20.80;;;18.60;;
3259;SDS011;68938;48.150;14.004;2023-05-20T03:09:39;21.10;;;18.93;;
3259;SDS011;68938;48.150;14.004;2023-05-20T03:12:06;20.03;;;17.97;;
3259;SDS011;68938;48.150;14.004;2023-05-20T03:14:33;21.20;;;18.90;;
3259;SDS011;68938;48.150;14.004;2023-05-20T03:17:00;22.10;;;19.90;;
3259;SDS011;68938;48.150;14.004;2023-05-20T03:19:27;25.67;;;22.93;;
3259;SDS011;68938;48.150;14.004;2023-05-20T03:21:54;22.80;;;20.50;;
3259;SDS011;68938;48.150;14.004;2023-05-20T03:24:21;28.83;;;21.60;;
3259;SDS011;68938;48.150;14.004;2023-05-20T03:26:48;25.53;;;20.80;;
3259;SDS011;68938;48.150;14.004;2023-05-20T03:29:15;23.50;;;20.37;;
3259;SDS011;68938;48.150;14.004;2023-05-20T03:31:42;23.50;;;21.00;;
3259;SDS011;68938;48.150;14.004;2023-05-20T03:34:09;25.50;;;22.73;;
3259;SDS011;68938;48.150;14.004;2023-05-20T03:36:36;22.77;;;20.30;;
3259;SDS011;68938;48.150;14.004;2023-05-20T03:39:03;24.90;;;22.30;;
3259;SDS011;68938;48.150;14.004;2023-05-20T03:41:31;23.90;;;21.10;;
3259;SDS011;68938;48.150;14.004;2023-05-20T03:43:58;25.67;;;22.93;;
3259;SDS011;68938;48.150;14.004;2023-05-20T03:46:25;27.40;;;22.37;;
3259;SDS011;68938;48.150;14.004;2023-05-20T03:48:52;24.47;;;20.87;;
3259;SDS011;68938;48.150;14.004;2023-05-20T03:51:19;24.83;;;22.13;;
3259;SDS011;68938;48.150;14.004;2023-05-20T03:53:46;24.30;;;21.87;;
3259;SDS011;68938;48.150;14.004;2023-05-20T03:56:13;24.60;;;21.70;;
3259;SDS011;68938;48.150;14.004;2023-05-20T03:58:40;25.50;;;21.33;;
3259;SDS011;68938;48.150;14.004;2023-05-20T04:01:08;25.10;;;20.90;;
3259;SDS011;68938;48.150;14.004;2023-05-20T04:03:34;23.00;;;19.37;;
3259;SDS011;68938;48.150;14.004;2023-05-20T04:06:02;26.63;;;23.70;;
3259;SDS011;68938;48.150;14.004;2023-05-20T04:08:29;24.70;;;20.90;;
3259;SDS011;68938;48.150;14.004;2023-05-20T04:10:56;26.80;;;23.77;;
3259;SDS011;68938;48.150;14.004;2023-05-20T04:13:23;27.83;;;22.30;;
3259;SDS011;68938;48.150;14.004;2023-05-20T04:15:51;23.40;;;20.90;;
3259;SDS011;68938;48.150;14.004;2023-05-20T04:18:18;26.67;;;22.77;;
3259;SDS011;68938;48.150;14.004;2023-05-20T04:20:45;26.90;;;22.03;;
3259;SDS011;68938;48.150;14.004;2023-05-20T04:23:12;22.30;;;20.00;;
3259;SDS011;68938;48.150;14.004;2023-05-20T04:25:39;28.33;;;22.47;;
3259;SDS011;68938;48.150;14.004;2023-05-20T04:28:06;24.33;;;21.40;;
3259;SDS011;68938;48.150;14.004;2023-05-20T04:30:33;23.27;;;20.97;;
3259;SDS011;68938;48.150;14.004;2023-05-20T04:33:00;26.10;;;22.13;;
3259;SDS011;68938;48.150;14.004;2023-05-20T04:35:27;24.37;;;21.77;;
3259;SDS011;68938;48.150;14.004;2023-05-20T04:37:54;23.57;;;20.53;;
3259;SDS011;68938;48.150;14.004;2023-05-20T04:40:21;27.50;;;21.40;;
3259;SDS011;68938;48.150;14.004;2023-05-20T04:42:48;23.17;;;19.20;;
3259;SDS011;68938;48.150;14.004;2023-05-20T04:45:15;26.60;;;23.70;;
3259;SDS011;68938;48.150;14.004;2023-05-20T04:47:42;22.97;;;20.57;;
3259;SDS011;68938;48.150;14.004;2023-05-20T04:50:10;24.67;;;20.77;;
3259;SDS011;68938;48.150;14.004;2023-05-20T04:52:37;24.20;;;20.57;;
3259;SDS011;68938;48.150;14.004;2023-05-20T04:55:06;23.67;;;19.90;;
3259;SDS011;68938;48.150;14.004;2023-05-20T04:57:34;20.00;;;17.03;;
3259;SDS011;68938;48.150;14.004;2023-05-20T05:00:02;25.27;;;22.60;;
3259;SDS011;68938;48.150;14.004;2023-05-20T05:02:30;27.33;;;20.40;;
3259;SDS011;68938;48.150;14.004;2023-05-20T05:04:56;21.50;;;17.77;;
3259;SDS011;68938;48.150;14.004;2023-05-20T05:07:24;25.37;;;20.63;;
3259;SDS011;68938;48.150;14.004;2023-05-20T05:09:51;21.60;;;19.17;;
3259;SDS011;68938;48.150;14.004;2023-05-20T05:12:17;22.30;;;18.40;;
3259;SDS011;68938;48.150;14.004;2023-05-20T05:14:44;25.30;;;21.03;;
3259;SDS011;68938;48.150;14.004;2023-05-20T05:17:11;23.17;;;20.70;;
3259;SDS011;68938;48.150;14.004;2023-05-20T05:19:38;24.40;;;20.10;;
3259;SDS011;68938;48.150;14.004;2023-05-20T05:22:05;23.13;;;19.93;;
3259;SDS011;68938;48.150;14.004;2023-05-20T05:24:32;22.70;;;19.20;;
3259;SDS011;68938;48.150;14.004;2023-05-20T05:26:59;22.30;;;17.97;;
3259;SDS011;68938;48.150;14.004;2023-05-20T05:29:26;21.10;;;18.43;;
3259;SDS011;68938;48.150;14.004;2023-05-20T05:31:53;19.93;;;17.70;;
3259;SDS011;68938;48.150;14.004;2023-05-20T05:34:20;23.70;;;20.07;;
3259;SDS011;68938;48.150;14.004;2023-05-20T05:36:47;20.43;;;18.23;;
3259;SDS011;68938;48.150;14.004;2023-05-20T05:39:14;22.20;;;18.90;;
3259;SDS011;68938;48.150;14.004;2023-05-20T05:41:40;21.50;;;19.13;;
3259;SDS011;68938;48.150;14.004;2023-05-20T05:44:07;23.10;;;18.70;;
3259;SDS011;68938;48.150;14.004;2023-05-20T05:46:34;22.70;;;19.47;;
3259;SDS011;68938;48.150;14.004;2023-05-20T05:49:01;23.60;;;20.50;;
3259;SDS011;68938;48.150;14.004;2023-05-20T05:51:28;23.33;;;20.10;;
3259;SDS011;68938;48.150;14.004;2023-05-20T05:53:55;24.53;;;20.30;;
3259;SDS011;68938;48.150;14.004;2023-05-20T05:56:22;24.00;;;20.27;;
3259;SDS011;68938;48.150;14.004;2023-05-20T05:58:49;22.90;;;20.27;;
3259;SDS011;68938;48.150;14.004;2023-05-20T06:01:16;27.33;;;21.03;;
3259;SDS011;68938;48.150;14.004;2023-05-20T06:03:43;23.67;;;21.17;;
3259;SDS011;68938;48.150;14.004;2023-05-20T06:06:10;24.83;;;22.23;;
3259;SDS011;68938;48.150;14.004;2023-05-20T06:08:37;26.00;;;22.50;;
3259;SDS011;68938;48.150;14.004;2023-05-20T06:11:04;24.80;;;21.20;;
3259;SDS011;68938;48.150;14.004;2023-05-20T06:13:31;23.33;;;20.83;;
3259;SDS011;68938;48.150;14.004;2023-05-20T06:15:58;23.50;;;21.00;;
3259;SDS011;68938;48.150;14.004;2023-05-20T06:18:25;23.57;;;21.07;;
3259;SDS011;68938;48.150;14.004;2023-05-20T06:20:56;24.37;;;21.00;;
3259;SDS011;68938;48.150;14.004;2023-05-20T06:23:23;22.83;;;20.43;;
3259;SDS011;68938;48.150;14.004;2023-05-20T06:25:50;22.83;;;20.20;;
3259;SDS011;68938;48.150;14.004;2023-05-20T06:28:17;23.27;;;20.13;;
3259;SDS011;68938;48.150;14.004;2023-05-20T06:30:44;27.60;;;21.40;;
3259;SDS011;68938;48.150;14.004;2023-05-20T06:33:11;19.43;;;17.33;;
3259;SDS011;68938;48.150;14.004;2023-05-20T06:35:38;22.77;;;19.60;;
3259;SDS011;68938;48.150;14.004;2023-05-20T06:38:05;22.87;;;19.57;;
3259;SDS011;68938;48.150;14.004;2023-05-20T06:40:32;22.47;;;20.07;;
3259;SDS011;68938;48.150;14.004;2023-05-20T06:42:59;25.73;;;21.33;;
3259;SDS011;68938;48.150;14.004;2023-05-20T06:45:26;22.27;;;19.87;;
3259;SDS011;68938;48.150;14.004;2023-05-20T06:47:53;22.80;;;19.47;;
3259;SDS011;68938;48.150;14.004;2023-05-20T06:50:20;23.30;;;19.70;;
3259;SDS011;68938;48.150;14.004;2023-05-20T06:52:46;22.17;;;19.70;;
3259;SDS011;68938;48.150;14.004;2023-05-20T06:55:13;19.50;;;16.90;;
3259;SDS011;68938;48.150;14.004;2023-05-20T06:57:40;21.73;;;19.37;;
3259;SDS011;68938;48.150;14.004;2023-05-20T07:00:07;23.20;;;19.80;;
3259;SDS011;68938;48.150;14.004;2023-05-20T07:02:35;24.50;;;20.10;;
3259;SDS011;68938;48.150;14.004;2023-05-20T07:05:02;24.77;;;21.03;;
3259;SDS011;68938;48.150;14.004;2023-05-20T07:07:29;22.90;;;18.10;;
3259;SDS011;68938;48.150;14.004;2023-05-20T07:09:56;22.47;;;20.20;;
3259;SDS011;68938;48.150;14.004;2023-05-20T07:12:24;24.23;;;19.63;;
3259;SDS011;68938;48.150;14.004;2023-05-20T07:14:51;25.97;;;18.73;;
3259;SDS011;68938;48.150;14.004;2023-05-20T07:17:18;22.33;;;20.03;;
3259;SDS011;68938;48.150;14.004;2023-05-20T07:19:45;21.20;;;19.10;;
3259;SDS011;68938;48.150;14.004;2023-05-20T07:22:12;21.73;;;19.03;;
3259;SDS011;68938;48.150;14.004;2023-05-20T07:24:38;20.03;;;18.03;;
3259;SDS011;68938;48.150;14.004;2023-05-20T07:27:05;21.03;;;18.43;;
3259;SDS011;68938;48.150;14.004;2023-05-20T07:29:36;21.63;;;19.20;;
3259;SDS011;68938;48.150;14.004;2023-05-20T07:32:03;20.13;;;18.07;;
3259;SDS011;68938;48.150;14.004;2023-05-20T07:34:31;22.23;;;20.03;;
3259;SDS011;68938;48.150;14.004;2023-05-20T07:36:58;18.87;;;16.87;;
3259;SDS011;68938;48.150;14.004;2023-05-20T07:39:24;22.90;;;19.40;;
3259;SDS011;68938;48.150;14.004;2023-05-20T07:41:51;20.03;;;17.90;;
3259;SDS011;68938;48.150;14.004;2023-05-20T07:44:18;19.43;;;17.30;;
3259;SDS011;68938;48.150;14.004;2023-05-20T07:46:45;20.77;;;18.70;;
3259;SDS011;68938;48.150;14.004;2023-05-20T07:49:13;19.50;;;17.43;;
3259;SDS011;68938;48.150;14.004;2023-05-20T07:51:40;20.40;;;17.67;;
3259;SDS011;68938;48.150;14.004;2023-05-20T07:54:07;20.37;;;18.27;;
3259;SDS011;68938;48.150;14.004;2023-05-20T07:56:34;24.50;;;20.07;;
3259;SDS011;68938;48.150;14.004;2023-05-20T07:59:01;18.57;;;16.67;;
3259;SDS011;68938;48.150;14.004;2023-05-20T08:01:28;18.73;;;16.73;;
3259;SDS011;68938;48.150;14.004;2023-05-20T08:03:55;21.70;;;17.70;;
3259;SDS011;68938;48.150;14.004;2023-05-20T08:06:23;15.70;;;14.13;;
3259;SDS011;68938;48.150;14.004;2023-05-20T08:08:51;18.57;;;16.67;;
3259;SDS011;68938;48.150;14.004;2023-05-20T08:11:19;16.80;;;15.03;;
3259;SDS011;68938;48.150;14.004;2023-05-20T08:13:46;19.30;;;16.13;;
3259;SDS011;68938;48.150;14.004;2023-05-20T08:16:14;19.03;;;17.23;;
3259;SDS011;68938;48.150;14.004;2023-05-20T08:18:41;17.53;;;15.83;;
3259;SDS011;68938;48.150;14.004;2023-05-20T08:21:08;22.33;;;14.93;;
3259;SDS011;68938;48.150;14.004;2023-05-20T08:23:35;16.30;;;14.20;;
3259;SDS011;68938;48.150;14.004;2023-05-20T08:26:05;16.10;;;14.40;;
3259;SDS011;68938;48.150;14.004;2023-05-20T08:28:33;17.10;;;14.97;;
3259;SDS011;68938;48.150;14.004;2023-05-20T08:31:00;17.97;;;15.10;;
3259;SDS011;68938;48.150;14.004;2023-05-20T08:33:27;15.57;;;14.00;;
3259;SDS011;68938;48.150;14.004;2023-05-20T08:35:54;14.03;;;12.73;;
3259;SDS011;68938;48.150;14.004;2023-05-20T08:38:21;18.23;;;16.27;;
3259;SDS011;68938;48.150;14.004;2023-05-20T08:40:54;15.50;;;14.00;;
3259;SDS011;68938;48.150;14.004;2023-05-20T08:43:23;15.90;;;14.40;;
3259;SDS011;68938;48.150;14.004;2023-05-20T08:45:51;16.00;;;14.50;;
3259;SDS011;68938;48.150;14.004;2023-05-20T08:48:18;15.80;;;14.27;;
3259;SDS011;68938;48.150;14.004;2023-05-20T08:50:50;16.97;;;15.27;;
3259;SDS011;68938;48.150;14.004;2023-05-20T08:53:19;15.30;;;13.77;;
3259;SDS011;68938;48.150;14.004;2023-05-20T08:55:52;15.30;;;13.80;;
3259;SDS011;68938;48.150;14.004;2023-05-20T08:58:20;15.17;;;13.63;;
3259;SDS011;68938;48.150;14.004;2023-05-20T09:00:49;13.63;;;12.43;;
3259;SDS011;68938;48.150;14.004;2023-05-20T09:03:17;14.77;;;13.37;;
3259;SDS011;68938;48.150;14.004;2023-05-20T09:05:45;16.07;;;14.47;;
3259;SDS011;68938;48.150;14.004;2023-05-20T09:08:13;14.43;;;12.93;;
3259;SDS011;68938;48.150;14.004;2023-05-20T09:10:40;14.10;;;12.70;;
3259;SDS011;68938;48.150;14.004;2023-05-20T09:13:08;12.47;;;11.40;;
3259;SDS011;68938;48.150;14.004;2023-05-20T09:15:36;15.30;;;12.93;;
3259;SDS011;68938;48.150;14.004;2023-05-20T09:18:05;13.27;;;12.13;;
3259;SDS011;68938;48.150;14.004;2023-05-20T09:20:35;14.00;;;12.87;;
3259;SDS011;68938;48.150;14.004;2023-05-20T09:23:04;13.43;;;12.23;;
3259;SDS011;68938;48.150;14.004;2023-05-20T09:25:33;12.03;;;11.03;;
3259;SDS011;68938;48.150;14.004;2023-05-20T09:28:06;13.10;;;11.90;;
3259;SDS011;68938;48.150;14.004;2023-05-20T09:30:34;11.27;;;10.23;;
3259;SDS011;68938;48.150;14.004;2023-05-20T09:33:02;12.03;;;10.90;;
3259;SDS011;68938;48.150;14.004;2023-05-20T09:35:33;12.43;;;11.33;;
3259;SDS011;68938;48.150;14.004;2023-05-20T09:38:01;11.23;;;10.33;;
3259;SDS011;68938;48.150;14.004;2023-05-20T09:40:31;10.83;;;9.90;;
3259;SDS011;68938;48.150;14.004;2023-05-20T09:43:00;11.03;;;10.07;;
3259;SDS011;68938;48.150;14.004;2023-05-20T09:45:29;11.07;;;10.07;;
3259;SDS011;68938;48.150;14.004;2023-05-20T09:47:56;12.03;;;10.93;;
3259;SDS011;68938;48.150;14.004;2023-05-20T09:50:27;14.40;;;11.07;;
3259;SDS011;68938;48.150;14.004;2023-05-20T09:52:56;11.43;;;10.33;;
3259;SDS011;68938;48.150;14.004;2023-05-20T09:55:28;9.70;;;8.90;;
3259;SDS011;68938;48.150;14.004;2023-05-20T09:57:57;9.87;;;9.13;;
3259;SDS011;68938;48.150;14.004;2023-05-20T10:00:27;11.40;;;10.40;;
3259;SDS011;68938;48.150;14.004;2023-05-20T10:02:55;10.47;;;9.67;;
3259;SDS011;68938;48.150;14.004;2023-05-20T10:10:46;9.97;;;9.17;;
3259;SDS011;68938;48.150;14.004;2023-05-20T10:16:16;10.80;;;9.97;;
3259;SDS011;68938;48.150;14.004;2023-05-20T10:22:00;10.40;;;9.60;;
3259;SDS011;68938;48.150;14.004;2023-05-20T10:24:31;10.87;;;9.03;;
3259;SDS011;68938;48.150;14.004;2023-05-20T10:27:10;10.73;;;9.77;;
3259;SDS011;68938;48.150;14.004;2023-05-20T10:32:09;8.87;;;8.10;;
3259;SDS011;68938;48.150;14.004;2023-05-20T10:34:46;10.63;;;9.73;;
3259;SDS011;68938;48.150;14.004;2023-05-20T10:37:22;8.80;;;8.20;;
3259;SDS011;68938;48.150;14.004;2023-05-20T10:40:01;9.57;;;8.73;;
3259;SDS011;68938;48.150;14.004;2023-05-20T10:42:40;10.23;;;9.47;;
3259;SDS011;68938;48.150;14.004;2023-05-20T10:45:08;9.20;;;8.40;;
3259;SDS011;68938;48.150;14.004;2023-05-20T10:47:36;10.00;;;9.10;;
3259;SDS011;68938;48.150;14.004;2023-05-20T10:50:27;10.87;;;9.90;;
3259;SDS011;68938;48.150;14.004;2023-05-20T10:53:04;10.10;;;9.10;;
3259;SDS011;68938;48.150;14.004;2023-05-20T10:55:46;9.80;;;9.00;;
3259;SDS011;68938;48.150;14.004;2023-05-20T10:58:15;10.80;;;9.70;;
3259;SDS011;68938;48.150;14.004;2023-05-20T11:00:43;10.47;;;9.57;;
3259;SDS011;68938;48.150;14.004;2023-05-20T11:03:10;10.80;;;10.00;;
3259;SDS011;68938;48.150;14.004;2023-05-20T11:05:39;10.10;;;9.23;;
3259;SDS011;68938;48.150;14.004;2023-05-20T11:08:06;10.87;;;9.97;;
3259;SDS011;68938;48.150;14.004;2023-05-20T11:10:52;9.87;;;9.00;;
3259;SDS011;68938;48.150;14.004;2023-05-20T11:13:23;11.27;;;10.27;;
3259;SDS011;68938;48.150;14.004;2023-05-20T11:15:52;10.60;;;9.80;;
3259;SDS011;68938;48.150;14.004;2023-05-20T11:18:19;12.00;;;11.00;;
3259;SDS011;68938;48.150;14.004;2023-05-20T11:20:46;10.97;;;10.00;;
3259;SDS011;68938;48.150;14.004;2023-05-20T11:23:13;11.93;;;10.83;;
3259;SDS011;68938;48.150;14.004;2023-05-20T11:25:41;11.50;;;10.40;;
3259;SDS011;68938;48.150;14.004;2023-05-20T11:28:11;10.87;;;9.97;;
3259;SDS011;68938;48.150;14.004;2023-05-20T11:30:40;11.50;;;10.50;;
3259;SDS011;68938;48.150;14.004;2023-05-20T11:33:10;12.37;;;11.37;;
3259;SDS011;68938;48.150;14.004;2023-05-20T11:35:48;11.30;;;10.40;;
3259;SDS011;68938;48.150;14.004;2023-05-20T11:38:18;11.30;;;10.13;;
3259;SDS011;68938;48.150;14.004;2023-05-20T11:40:50;11.33;;;10.40;;
3259;SDS011;68938;48.150;14.004;2023-05-20T11:43:21;10.23;;;9.33;;
3259;SDS011;68938;48.150;14.004;2023-05-20T11:45:54;10.47;;;9.60;;
3259;SDS011;68938;48.150;14.004;2023-05-20T11:48:22;11.43;;;10.57;;
3259;SDS011;68938;48.150;14.004;2023-05-20T11:50:51;10.13;;;9.33;;
3259;SDS011;68938;48.150;14.004;2023-05-20T11:53:21;12.87;;;10.60;;
3259;SDS011;68938;48.150;14.004;2023-05-20T11:55:56;10.07;;;9.07;;
3259;SDS011;68938;48.150;14.004;2023-05-20T11:58:25;10.60;;;9.80;;
3259;SDS011;68938;48.150;14.004;2023-05-20T12:00:55;10.53;;;9.63;;
3259;SDS011;68938;48.150;14.004;2023-05-20T12:03:39;9.50;;;8.80;;
3259;SDS011;68938;48.150;14.004;2023-05-20T12:06:06;9.50;;;8.70;;
3259;SDS011;68938;48.150;14.004;2023-05-20T12:08:33;10.07;;;9.27;;
3259;SDS011;68938;48.150;14.004;2023-05-20T12:11:00;10.63;;;9.83;;
3259;SDS011;68938;48.150;14.004;2023-05-20T12:13:27;11.33;;;10.33;;
3259;SDS011;68938;48.150;14.004;2023-05-20T12:15:54;10.40;;;9.50;;
3259;SDS011;68938;48.150;14.004;2023-05-20T12:18:21;9.87;;;9.00;;
3259;SDS011;68938;48.150;14.004;2023-05-20T12:20:48;9.23;;;8.53;;
3259;SDS011;68938;48.150;14.004;2023-05-20T12:23:15;9.60;;;8.90;;
3259;SDS011;68938;48.150;14.004;2023-05-20T12:25:42;10.70;;;9.90;;
3259;SDS011;68938;48.150;14.004;2023-05-20T12:28:10;11.00;;;10.00;;
3259;SDS011;68938;48.150;14.004;2023-05-20T12:30:37;10.57;;;9.73;;
3259;SDS011;68938;48.150;14.004;2023-05-20T12:33:04;10.20;;;9.33;;
3259;SDS011;68938;48.150;14.004;2023-05-20T12:35:38;10.77;;;9.67;;
3259;SDS011;68938;48.150;14.004;2023-05-20T12:38:07;9.93;;;9.13;;
3259;SDS011;68938;48.150;14.004;2023-05-20T12:40:35;10.17;;;9.37;;
3259;SDS011;68938;48.150;14.004;2023-05-20T12:43:03;10.30;;;9.50;;
3259;SDS011;68938;48.150;14.004;2023-05-20T12:45:31;10.73;;;9.90;;
3259;SDS011;68938;48.150;14.004;2023-05-20T12:47:59;10.90;;;10.10;;
3259;SDS011;68938;48.150;14.004;2023-05-20T12:50:26;11.03;;;10.03;;
3259;SDS011;68938;48.150;14.004;2023-05-20T12:52:53;11.43;;;10.37;;
3259;SDS011;68938;48.150;14.004;2023-05-20T12:55:20;10.37;;;9.57;;
3259;SDS011;68938;48.150;14.004;2023-05-20T12:57:47;10.60;;;9.90;;
3259;SDS011;68938;48.150;14.004;2023-05-20T13:00:15;11.13;;;10.20;;
3259;SDS011;68938;48.150;14.004;2023-05-20T13:02:43;11.40;;;9.83;;
3259;SDS011;68938;48.150;14.004;2023-05-20T13:05:10;10.33;;;9.43;;
3259;SDS011;68938;48.150;14.004;2023-05-20T13:07:37;10.73;;;9.73;;
3259;SDS011;68938;48.150;14.004;2023-05-20T13:10:04;12.00;;;11.00;;
3259;SDS011;68938;48.150;14.004;2023-05-20T13:12:33;11.20;;;10.10;;
3259;SDS011;68938;48.150;14.004;2023-05-20T13:15:00;11.20;;;10.40;;
3259;SDS011;68938;48.150;14.004;2023-05-20T13:17:28;11.37;;;10.47;;
3259;SDS011;68938;48.150;14.004;2023-05-20T13:19:55;11.63;;;10.63;;
3259;SDS011;68938;48.150;14.004;2023-05-20T13:22:22;11.90;;;10.90;;
3259;SDS011;68938;48.150;14.004;2023-05-20T13:24:49;11.90;;;10.90;;
3259;SDS011;68938;48.150;14.004;2023-05-20T13:27:16;11.47;;;10.20;;
3259;SDS011;68938;48.150;14.004;2023-05-20T13:29:43;12.80;;;11.70;;
3259;SDS011;68938;48.150;14.004;2023-05-20T13:32:10;12.83;;;11.60;;
3259;SDS011;68938;48.150;14.004;2023-05-20T13:34:37;12.37;;;11.37;;
3259;SDS011;68938;48.150;14.004;2023-05-20T13:37:04;12.17;;;11.00;;
3259;SDS011;68938;48.150;14.004;2023-05-20T13:39:32;11.27;;;10.47;;
3259;SDS011;68938;48.150;14.004;2023-05-20T13:41:59;14.57;;;12.67;;
3259;SDS011;68938;48.150;14.004;2023-05-20T13:44:26;10.80;;;9.93;;
3259;SDS011;68938;48.150;14.004;2023-05-20T13:46:54;11.57;;;10.57;;
3259;SDS011;68938;48.150;14.004;2023-05-20T13:49:22;12.80;;;11.70;;
3259;SDS011;68938;48.150;14.004;2023-05-20T13:51:49;12.03;;;10.70;;
3259;SDS011;68938;48.150;14.004;2023-05-20T13:54:15;10.40;;;9.40;;
3259;SDS011;68938;48.150;14.004;2023-05-20T13:56:42;11.90;;;10.90;;
3259;SDS011;68938;48.150;14.004;2023-05-20T13:59:09;10.20;;;9.33;;
3259;SDS011;68938;48.150;14.004;2023-05-20T14:01:36;13.40;;;11.27;;
3259;SDS011;68938;48.150;14.004;2023-05-20T14:04:06;12.23;;;11.23;;
3259;SDS011;68938;48.150;14.004;2023-05-20T14:06:33;12.17;;;11.00;;
3259;SDS011;68938;48.150;14.004;2023-05-20T14:09:01;12.43;;;11.40;;
3259;SDS011;68938;48.150;14.004;2023-05-20T14:11:28;11.70;;;10.80;;
3259;SDS011;68938;48.150;14.004;2023-05-20T14:13:55;14.43;;;11.07;;
3259;SDS011;68938;48.150;14.004;2023-05-20T14:16:22;11.50;;;10.50;;
3259;SDS011;68938;48.150;14.004;2023-05-20T14:18:49;12.20;;;11.10;;
3259;SDS011;68938;48.150;14.004;2023-05-20T14:21:16;12.00;;;10.90;;
3259;SDS011;68938;48.150;14.004;2023-05-20T14:23:43;14.00;;;11.20;;
3259;SDS011;68938;48.150;14.004;2023-05-20T14:26:10;11.67;;;10.53;;
3259;SDS011;68938;48.150;14.004;2023-05-20T14:28:37;13.13;;;11.93;;
3259;SDS011;68938;48.150;14.004;2023-05-20T14:31:04;12.43;;;11.43;;
3259;SDS011;68938;48.150;14.004;2023-05-20T14:33:34;12.67;;;11.57;;
3259;SDS011;68938;48.150;14.004;2023-05-20T14:36:02;12.57;;;11.40;;
3259;SDS011;68938;48.150;14.004;2023-05-20T14:38:29;12.63;;;11.60;;
3259;SDS011;68938;48.150;14.004;2023-05-20T14:40:56;13.60;;;12.37;;
3259;SDS011;68938;48.150;14.004;2023-05-20T14:43:23;12.97;;;11.87;;
3259;SDS011;68938;48.150;14.004;2023-05-20T14:45:50;12.73;;;11.67;;